sensor_id;sensor_type;location;lat;lon;timestamp;P1;durP1;ratioP1;P2;durP2;ratioP2
63807;SDS011;49961;43.970;22.868;2023-01-25T00:00:26;8.67;;;6.50;;
63807;SDS011;49961;43.970;22.868;2023-01-25T00:01:26;9.90;;;6.47;;
63807;SDS011;49961;43.970;22.868;2023-01-25T00:02:26;8.63;;;6.47;;
63807;SDS011;49961;43.970;22.868;2023-01-25T00:03:28;8.37;;;6.80;;
63807;SDS011;49961;43.970;22.868;2023-01-25T00:04:28;8.18;;;6.03;;
63807;SDS011;49961;43.970;22.868;2023-01-25T00:05:29;8.40;;;6.47;;
63807;SDS011;49961;43.970;22.868;2023-01-25T00:06:29;8.17;;;6.27;;
63807;SDS011;49961;43.970;22.868;2023-01-25T00:07:30;7.93;;;6.13;;
63807;SDS011;49961;43.970;22.868;2023-01-25T00:08:30;9.13;;;6.50;;
63807;SDS011;49961;43.970;22.868;2023-01-25T00:09:31;10.97;;;6.80;;
63807;SDS011;49961;43.970;22.868;2023-01-25T00:10:31;8.30;;;6.20;;
63807;SDS011;49961;43.970;22.868;2023-01-25T00:11:32;8.97;;;6.63;;
63807;SDS011;49961;43.970;22.868;2023-01-25T00:12:32;9.83;;;6.70;;
63807;SDS011;49961;43.970;22.868;2023-01-25T00:13:32;8.17;;;6.53;;
63807;SDS011;49961;43.970;22.868;2023-01-25T00:14:33;9.67;;;6.77;;
63807;SDS011;49961;43.970;22.868;2023-01-25T00:15:33;9.70;;;6.33;;
63807;SDS011;49961;43.970;22.868;2023-01-25T00:16:34;9.07;;;6.63;;
63807;SDS011;49961;43.970;22.868;2023-01-25T00:17:35;11.20;;;7.32;;
63807;SDS011;49961;43.970;22.868;2023-01-25T00:18:36;10.00;;;6.87;;
63807;SDS011;49961;43.970;22.868;2023-01-25T00:19:36;10.00;;;7.43;;
63807;SDS011;49961;43.970;22.868;2023-01-25T00:20:36;10.37;;;7.13;;
63807;SDS011;49961;43.970;22.868;2023-01-25T00:21:37;7.77;;;6.07;;
63807;SDS011;49961;43.970;22.868;2023-01-25T00:22:38;10.27;;;6.80;;
63807;SDS011;49961;43.970;22.868;2023-01-25T00:23:38;7.97;;;6.67;;
63807;SDS011;49961;43.970;22.868;2023-01-25T00:24:39;9.23;;;6.40;;
63807;SDS011;49961;43.970;22.868;2023-01-25T00:25:39;8.13;;;6.17;;
63807;SDS011;49961;43.970;22.868;2023-01-25T00:26:40;10.27;;;6.83;;
63807;SDS011;49961;43.970;22.868;2023-01-25T00:27:42;8.43;;;6.25;;
63807;SDS011;49961;43.970;22.868;2023-01-25T00:28:50;9.73;;;6.43;;
63807;SDS011;49961;43.970;22.868;2023-01-25T00:29:54;8.38;;;6.28;;
63807;SDS011;49961;43.970;22.868;2023-01-25T00:30:58;8.87;;;6.70;;
63807;SDS011;49961;43.970;22.868;2023-01-25T00:35:24;9.00;;;6.30;;
63807;SDS011;49961;43.970;22.868;2023-01-25T00:37:43;9.20;;;6.57;;
63807;SDS011;49961;43.970;22.868;2023-01-25T00:38:48;9.05;;;6.55;;
63807;SDS011;49961;43.970;22.868;2023-01-25T00:39:52;8.80;;;6.60;;
63807;SDS011;49961;43.970;22.868;2023-01-25T00:40:53;9.23;;;6.73;;
63807;SDS011;49961;43.970;22.868;2023-01-25T00:41:53;9.23;;;6.50;;
63807;SDS011;49961;43.970;22.868;2023-01-25T00:42:54;9.23;;;6.60;;
63807;SDS011;49961;43.970;22.868;2023-01-25T00:43:55;9.70;;;6.40;;
63807;SDS011;49961;43.970;22.868;2023-01-25T00:44:55;8.33;;;6.50;;
63807;SDS011;49961;43.970;22.868;2023-01-25T00:45:59;8.57;;;6.47;;
63807;SDS011;49961;43.970;22.868;2023-01-25T00:47:00;10.32;;;7.15;;
63807;SDS011;49961;43.970;22.868;2023-01-25T00:48:01;9.60;;;6.40;;
63807;SDS011;49961;43.970;22.868;2023-01-25T00:49:01;9.63;;;6.83;;
63807;SDS011;49961;43.970;22.868;2023-01-25T00:50:01;7.77;;;6.23;;
63807;SDS011;49961;43.970;22.868;2023-01-25T00:51:02;8.93;;;6.50;;
63807;SDS011;49961;43.970;22.868;2023-01-25T00:52:03;9.80;;;6.63;;
63807;SDS011;49961;43.970;22.868;2023-01-25T00:53:03;8.67;;;6.47;;
63807;SDS011;49961;43.970;22.868;2023-01-25T00:54:04;8.23;;;6.50;;
63807;SDS011;49961;43.970;22.868;2023-01-25T00:55:04;8.63;;;6.70;;
63807;SDS011;49961;43.970;22.868;2023-01-25T00:56:05;9.13;;;6.60;;
63807;SDS011;49961;43.970;22.868;2023-01-25T00:57:06;10.00;;;6.70;;
63807;SDS011;49961;43.970;22.868;2023-01-25T00:58:08;9.50;;;6.78;;
63807;SDS011;49961;43.970;22.868;2023-01-25T00:59:09;8.90;;;6.27;;
63807;SDS011;49961;43.970;22.868;2023-01-25T01:00:10;10.13;;;6.60;;
63807;SDS011;49961;43.970;22.868;2023-01-25T01:01:11;9.43;;;6.10;;
63807;SDS011;49961;43.970;22.868;2023-01-25T01:02:11;9.23;;;6.93;;
63807;SDS011;49961;43.970;22.868;2023-01-25T01:03:12;9.70;;;6.27;;
63807;SDS011;49961;43.970;22.868;2023-01-25T01:04:13;8.67;;;6.27;;
63807;SDS011;49961;43.970;22.868;2023-01-25T01:05:14;10.50;;;6.90;;
63807;SDS011;49961;43.970;22.868;2023-01-25T01:06:14;9.17;;;6.80;;
63807;SDS011;49961;43.970;22.868;2023-01-25T01:07:14;8.30;;;6.37;;
63807;SDS011;49961;43.970;22.868;2023-01-25T01:08:15;8.50;;;6.50;;
63807;SDS011;49961;43.970;22.868;2023-01-25T01:09:16;9.23;;;7.07;;
63807;SDS011;49961;43.970;22.868;2023-01-25T01:10:17;8.68;;;6.57;;
63807;SDS011;49961;43.970;22.868;2023-01-25T01:11:18;8.73;;;6.60;;
63807;SDS011;49961;43.970;22.868;2023-01-25T01:12:18;9.00;;;6.43;;
63807;SDS011;49961;43.970;22.868;2023-01-25T01:13:19;9.10;;;6.20;;
63807;SDS011;49961;43.970;22.868;2023-01-25T01:14:20;8.83;;;6.87;;
63807;SDS011;49961;43.970;22.868;2023-01-25T01:15:21;8.32;;;6.30;;
63807;SDS011;49961;43.970;22.868;2023-01-25T01:16:22;8.90;;;6.87;;
63807;SDS011;49961;43.970;22.868;2023-01-25T01:17:23;7.45;;;5.68;;
63807;SDS011;49961;43.970;22.868;2023-01-25T01:18:23;9.93;;;6.17;;
63807;SDS011;49961;43.970;22.868;2023-01-25T01:19:24;8.33;;;6.80;;
63807;SDS011;49961;43.970;22.868;2023-01-25T01:20:24;9.33;;;6.70;;
63807;SDS011;49961;43.970;22.868;2023-01-25T01:21:25;9.13;;;6.27;;
63807;SDS011;49961;43.970;22.868;2023-01-25T01:22:25;10.00;;;6.70;;
63807;SDS011;49961;43.970;22.868;2023-01-25T01:23:27;7.97;;;6.30;;
63807;SDS011;49961;43.970;22.868;2023-01-25T01:24:28;9.18;;;6.78;;
63807;SDS011;49961;43.970;22.868;2023-01-25T01:25:28;8.30;;;6.67;;
63807;SDS011;49961;43.970;22.868;2023-01-25T01:26:28;9.17;;;6.97;;
63807;SDS011;49961;43.970;22.868;2023-01-25T01:27:29;8.87;;;6.70;;
63807;SDS011;49961;43.970;22.868;2023-01-25T01:28:31;8.93;;;6.67;;
63807;SDS011;49961;43.970;22.868;2023-01-25T01:29:32;9.95;;;6.93;;
63807;SDS011;49961;43.970;22.868;2023-01-25T01:30:33;9.37;;;6.37;;
63807;SDS011;49961;43.970;22.868;2023-01-25T01:31:33;9.60;;;7.00;;
63807;SDS011;49961;43.970;22.868;2023-01-25T01:32:34;8.77;;;6.90;;
63807;SDS011;49961;43.970;22.868;2023-01-25T01:33:34;9.23;;;7.23;;
63807;SDS011;49961;43.970;22.868;2023-01-25T01:34:34;8.33;;;6.70;;
63807;SDS011;49961;43.970;22.868;2023-01-25T01:35:35;9.13;;;6.67;;
63807;SDS011;49961;43.970;22.868;2023-01-25T01:36:35;11.43;;;6.90;;
63807;SDS011;49961;43.970;22.868;2023-01-25T01:37:36;8.90;;;6.60;;
63807;SDS011;49961;43.970;22.868;2023-01-25T01:38:36;7.93;;;6.43;;
63807;SDS011;49961;43.970;22.868;2023-01-25T01:39:37;8.23;;;6.43;;
63807;SDS011;49961;43.970;22.868;2023-01-25T01:40:37;7.37;;;6.03;;
63807;SDS011;49961;43.970;22.868;2023-01-25T01:41:43;9.50;;;7.07;;
63807;SDS011;49961;43.970;22.868;2023-01-25T01:43:03;10.53;;;7.10;;
63807;SDS011;49961;43.970;22.868;2023-01-25T01:44:12;10.10;;;6.68;;
63807;SDS011;49961;43.970;22.868;2023-01-25T01:46:53;7.80;;;5.90;;
63807;SDS011;49961;43.970;22.868;2023-01-25T01:47:56;9.35;;;6.60;;
63807;SDS011;49961;43.970;22.868;2023-01-25T01:50:18;9.43;;;6.38;;
63807;SDS011;49961;43.970;22.868;2023-01-25T01:51:38;8.32;;;6.72;;
63807;SDS011;49961;43.970;22.868;2023-01-25T01:52:58;8.65;;;6.35;;
63807;SDS011;49961;43.970;22.868;2023-01-25T01:54:00;8.80;;;6.73;;
63807;SDS011;49961;43.970;22.868;2023-01-25T01:55:11;8.95;;;6.45;;
63807;SDS011;49961;43.970;22.868;2023-01-25T01:56:18;10.65;;;6.95;;
63807;SDS011;49961;43.970;22.868;2023-01-25T01:57:45;9.32;;;6.50;;
63807;SDS011;49961;43.970;22.868;2023-01-25T01:58:46;8.70;;;6.38;;
63807;SDS011;49961;43.970;22.868;2023-01-25T01:59:57;9.52;;;6.90;;
63807;SDS011;49961;43.970;22.868;2023-01-25T02:01:10;8.85;;;6.53;;
63807;SDS011;49961;43.970;22.868;2023-01-25T02:02:11;9.57;;;6.73;;
63807;SDS011;49961;43.970;22.868;2023-01-25T02:03:12;9.60;;;6.95;;
63807;SDS011;49961;43.970;22.868;2023-01-25T02:04:15;10.52;;;7.03;;
63807;SDS011;49961;43.970;22.868;2023-01-25T02:05:20;10.90;;;7.05;;
63807;SDS011;49961;43.970;22.868;2023-01-25T02:06:38;10.00;;;6.82;;
63807;SDS011;49961;43.970;22.868;2023-01-25T02:07:54;8.63;;;6.47;;
63807;SDS011;49961;43.970;22.868;2023-01-25T02:08:56;8.95;;;6.70;;
63807;SDS011;49961;43.970;22.868;2023-01-25T02:09:58;9.57;;;6.63;;
63807;SDS011;49961;43.970;22.868;2023-01-25T02:10:59;8.65;;;6.60;;
63807;SDS011;49961;43.970;22.868;2023-01-25T02:12:03;9.95;;;7.30;;
63807;SDS011;49961;43.970;22.868;2023-01-25T02:13:05;10.48;;;7.30;;
63807;SDS011;49961;43.970;22.868;2023-01-25T02:14:05;9.63;;;7.00;;
63807;SDS011;49961;43.970;22.868;2023-01-25T02:15:06;10.57;;;6.93;;
63807;SDS011;49961;43.970;22.868;2023-01-25T02:16:14;8.93;;;6.70;;
63807;SDS011;49961;43.970;22.868;2023-01-25T02:17:31;10.13;;;7.30;;
63807;SDS011;49961;43.970;22.868;2023-01-25T02:18:34;9.43;;;6.80;;
63807;SDS011;49961;43.970;22.868;2023-01-25T02:19:47;9.67;;;6.73;;
63807;SDS011;49961;43.970;22.868;2023-01-25T02:21:05;9.88;;;7.00;;
63807;SDS011;49961;43.970;22.868;2023-01-25T02:22:07;10.50;;;6.93;;
63807;SDS011;49961;43.970;22.868;2023-01-25T02:23:17;9.70;;;6.90;;
63807;SDS011;49961;43.970;22.868;2023-01-25T02:24:22;8.55;;;6.90;;
63807;SDS011;49961;43.970;22.868;2023-01-25T02:25:27;9.35;;;7.18;;
63807;SDS011;49961;43.970;22.868;2023-01-25T02:26:28;10.50;;;7.07;;
63807;SDS011;49961;43.970;22.868;2023-01-25T02:27:30;8.32;;;6.93;;
63807;SDS011;49961;43.970;22.868;2023-01-25T02:28:42;8.88;;;7.13;;
63807;SDS011;49961;43.970;22.868;2023-01-25T02:29:48;9.85;;;6.97;;
63807;SDS011;49961;43.970;22.868;2023-01-25T02:30:50;8.77;;;6.72;;
63807;SDS011;49961;43.970;22.868;2023-01-25T02:31:53;9.67;;;7.00;;
63807;SDS011;49961;43.970;22.868;2023-01-25T02:32:58;9.68;;;6.95;;
63807;SDS011;49961;43.970;22.868;2023-01-25T02:33:59;8.90;;;7.03;;
63807;SDS011;49961;43.970;22.868;2023-01-25T02:34:59;12.17;;;7.13;;
63807;SDS011;49961;43.970;22.868;2023-01-25T02:37:07;8.88;;;7.03;;
63807;SDS011;49961;43.970;22.868;2023-01-25T02:38:14;8.88;;;6.90;;
63807;SDS011;49961;43.970;22.868;2023-01-25T02:39:16;9.02;;;6.95;;
63807;SDS011;49961;43.970;22.868;2023-01-25T02:40:18;9.52;;;7.10;;
63807;SDS011;49961;43.970;22.868;2023-01-25T02:42:24;9.57;;;6.68;;
63807;SDS011;49961;43.970;22.868;2023-01-25T02:43:30;8.57;;;6.70;;
63807;SDS011;49961;43.970;22.868;2023-01-25T02:44:33;9.32;;;7.20;;
63807;SDS011;49961;43.970;22.868;2023-01-25T02:45:34;9.03;;;6.67;;
63807;SDS011;49961;43.970;22.868;2023-01-25T02:46:35;9.47;;;6.57;;
63807;SDS011;49961;43.970;22.868;2023-01-25T02:47:37;8.65;;;7.07;;
63807;SDS011;49961;43.970;22.868;2023-01-25T02:48:38;8.90;;;6.40;;
63807;SDS011;49961;43.970;22.868;2023-01-25T02:49:38;8.70;;;6.70;;
63807;SDS011;49961;43.970;22.868;2023-01-25T02:50:38;9.20;;;7.10;;
63807;SDS011;49961;43.970;22.868;2023-01-25T02:51:47;9.77;;;6.63;;
63807;SDS011;49961;43.970;22.868;2023-01-25T02:52:51;9.65;;;7.13;;
63807;SDS011;49961;43.970;22.868;2023-01-25T02:53:52;9.23;;;6.80;;
63807;SDS011;49961;43.970;22.868;2023-01-25T02:54:52;8.67;;;6.70;;
63807;SDS011;49961;43.970;22.868;2023-01-25T02:55:53;9.47;;;7.00;;
63807;SDS011;49961;43.970;22.868;2023-01-25T02:56:53;8.97;;;6.80;;
63807;SDS011;49961;43.970;22.868;2023-01-25T02:57:54;11.23;;;7.75;;
63807;SDS011;49961;43.970;22.868;2023-01-25T02:58:54;10.07;;;6.90;;
63807;SDS011;49961;43.970;22.868;2023-01-25T02:59:55;8.67;;;6.87;;
63807;SDS011;49961;43.970;22.868;2023-01-25T03:00:56;9.53;;;7.27;;
63807;SDS011;49961;43.970;22.868;2023-01-25T03:01:57;10.07;;;6.80;;
63807;SDS011;49961;43.970;22.868;2023-01-25T03:02:58;9.67;;;6.33;;
63807;SDS011;49961;43.970;22.868;2023-01-25T03:03:58;10.93;;;6.90;;
63807;SDS011;49961;43.970;22.868;2023-01-25T03:04:59;9.37;;;7.00;;
63807;SDS011;49961;43.970;22.868;2023-01-25T03:05:59;10.57;;;7.17;;
63807;SDS011;49961;43.970;22.868;2023-01-25T03:07:00;9.87;;;7.23;;
63807;SDS011;49961;43.970;22.868;2023-01-25T03:08:00;9.77;;;7.03;;
63807;SDS011;49961;43.970;22.868;2023-01-25T03:09:01;9.60;;;7.23;;
63807;SDS011;49961;43.970;22.868;2023-01-25T03:10:03;9.00;;;7.18;;
63807;SDS011;49961;43.970;22.868;2023-01-25T03:11:05;8.83;;;6.70;;
63807;SDS011;49961;43.970;22.868;2023-01-25T03:12:06;9.88;;;7.13;;
63807;SDS011;49961;43.970;22.868;2023-01-25T03:13:06;8.70;;;6.83;;
63807;SDS011;49961;43.970;22.868;2023-01-25T03:14:07;8.97;;;7.07;;
63807;SDS011;49961;43.970;22.868;2023-01-25T03:15:07;10.17;;;7.37;;
63807;SDS011;49961;43.970;22.868;2023-01-25T03:16:09;9.43;;;7.10;;
63807;SDS011;49961;43.970;22.868;2023-01-25T03:17:11;8.88;;;6.85;;
63807;SDS011;49961;43.970;22.868;2023-01-25T03:18:11;9.47;;;7.53;;
63807;SDS011;49961;43.970;22.868;2023-01-25T03:19:12;9.77;;;7.00;;
63807;SDS011;49961;43.970;22.868;2023-01-25T03:20:12;9.23;;;6.93;;
63807;SDS011;49961;43.970;22.868;2023-01-25T03:21:21;9.80;;;7.10;;
63807;SDS011;49961;43.970;22.868;2023-01-25T03:22:22;9.55;;;7.03;;
63807;SDS011;49961;43.970;22.868;2023-01-25T03:23:23;9.67;;;7.30;;
63807;SDS011;49961;43.970;22.868;2023-01-25T03:24:23;9.43;;;7.10;;
63807;SDS011;49961;43.970;22.868;2023-01-25T03:25:24;9.30;;;7.03;;
63807;SDS011;49961;43.970;22.868;2023-01-25T03:26:26;9.93;;;7.35;;
63807;SDS011;49961;43.970;22.868;2023-01-25T03:27:28;8.75;;;6.82;;
63807;SDS011;49961;43.970;22.868;2023-01-25T03:28:29;8.82;;;6.65;;
63807;SDS011;49961;43.970;22.868;2023-01-25T03:29:29;10.33;;;6.70;;
63807;SDS011;49961;43.970;22.868;2023-01-25T03:30:30;10.13;;;7.03;;
63807;SDS011;49961;43.970;22.868;2023-01-25T03:31:30;9.27;;;6.97;;
63807;SDS011;49961;43.970;22.868;2023-01-25T03:32:31;8.47;;;6.30;;
63807;SDS011;49961;43.970;22.868;2023-01-25T03:33:31;9.17;;;6.57;;
63807;SDS011;49961;43.970;22.868;2023-01-25T03:34:32;11.52;;;7.10;;
63807;SDS011;49961;43.970;22.868;2023-01-25T03:35:33;9.03;;;7.03;;
63807;SDS011;49961;43.970;22.868;2023-01-25T03:36:33;8.97;;;6.83;;
63807;SDS011;49961;43.970;22.868;2023-01-25T03:37:34;9.07;;;6.73;;
63807;SDS011;49961;43.970;22.868;2023-01-25T03:38:34;8.70;;;6.40;;
63807;SDS011;49961;43.970;22.868;2023-01-25T03:39:35;10.10;;;7.37;;
63807;SDS011;49961;43.970;22.868;2023-01-25T03:40:35;9.80;;;7.30;;
63807;SDS011;49961;43.970;22.868;2023-01-25T03:41:35;8.60;;;6.70;;
63807;SDS011;49961;43.970;22.868;2023-01-25T03:42:36;8.77;;;6.70;;
63807;SDS011;49961;43.970;22.868;2023-01-25T03:43:36;8.80;;;7.20;;
63807;SDS011;49961;43.970;22.868;2023-01-25T03:44:37;8.10;;;6.37;;
63807;SDS011;49961;43.970;22.868;2023-01-25T03:45:37;8.20;;;6.83;;
63807;SDS011;49961;43.970;22.868;2023-01-25T03:46:38;8.60;;;6.90;;
63807;SDS011;49961;43.970;22.868;2023-01-25T03:47:40;10.00;;;7.15;;
63807;SDS011;49961;43.970;22.868;2023-01-25T03:48:41;8.53;;;6.77;;
63807;SDS011;49961;43.970;22.868;2023-01-25T03:49:41;9.43;;;6.43;;
63807;SDS011;49961;43.970;22.868;2023-01-25T03:50:42;8.63;;;6.90;;
63807;SDS011;49961;43.970;22.868;2023-01-25T03:51:42;8.43;;;6.80;;
63807;SDS011;49961;43.970;22.868;2023-01-25T03:52:43;9.87;;;7.07;;
63807;SDS011;49961;43.970;22.868;2023-01-25T03:53:45;9.60;;;6.60;;
63807;SDS011;49961;43.970;22.868;2023-01-25T03:54:46;9.40;;;6.20;;
63807;SDS011;49961;43.970;22.868;2023-01-25T03:55:46;9.30;;;7.10;;
63807;SDS011;49961;43.970;22.868;2023-01-25T03:56:47;9.67;;;6.53;;
63807;SDS011;49961;43.970;22.868;2023-01-25T03:57:47;9.20;;;6.50;;
63807;SDS011;49961;43.970;22.868;2023-01-25T03:58:48;9.48;;;7.10;;
63807;SDS011;49961;43.970;22.868;2023-01-25T03:59:49;11.67;;;7.37;;
63807;SDS011;49961;43.970;22.868;2023-01-25T04:00:49;8.87;;;6.93;;
63807;SDS011;49961;43.970;22.868;2023-01-25T04:01:50;10.87;;;7.13;;
63807;SDS011;49961;43.970;22.868;2023-01-25T04:02:51;9.53;;;7.00;;
63807;SDS011;49961;43.970;22.868;2023-01-25T04:03:51;10.90;;;7.00;;
63807;SDS011;49961;43.970;22.868;2023-01-25T04:04:52;9.10;;;6.70;;
63807;SDS011;49961;43.970;22.868;2023-01-25T04:05:52;9.43;;;7.23;;
63807;SDS011;49961;43.970;22.868;2023-01-25T04:06:53;9.88;;;7.85;;
63807;SDS011;49961;43.970;22.868;2023-01-25T04:07:54;9.53;;;7.47;;
63807;SDS011;49961;43.970;22.868;2023-01-25T04:08:54;9.20;;;7.20;;
63807;SDS011;49961;43.970;22.868;2023-01-25T04:09:55;11.33;;;7.73;;
63807;SDS011;49961;43.970;22.868;2023-01-25T04:10:56;9.93;;;7.07;;
63807;SDS011;49961;43.970;22.868;2023-01-25T04:12:01;9.57;;;7.10;;
63807;SDS011;49961;43.970;22.868;2023-01-25T04:13:01;9.33;;;7.20;;
63807;SDS011;49961;43.970;22.868;2023-01-25T04:14:01;9.73;;;7.30;;
63807;SDS011;49961;43.970;22.868;2023-01-25T04:15:02;8.90;;;6.70;;
63807;SDS011;49961;43.970;22.868;2023-01-25T04:16:03;11.27;;;7.27;;
63807;SDS011;49961;43.970;22.868;2023-01-25T04:17:05;9.02;;;6.90;;
63807;SDS011;49961;43.970;22.868;2023-01-25T04:18:07;9.80;;;7.47;;
63807;SDS011;49961;43.970;22.868;2023-01-25T04:19:07;9.87;;;7.10;;
63807;SDS011;49961;43.970;22.868;2023-01-25T04:20:08;9.23;;;7.17;;
63807;SDS011;49961;43.970;22.868;2023-01-25T04:21:09;9.90;;;7.38;;
63807;SDS011;49961;43.970;22.868;2023-01-25T04:22:09;10.93;;;7.50;;
63807;SDS011;49961;43.970;22.868;2023-01-25T04:23:10;9.97;;;7.43;;
63807;SDS011;49961;43.970;22.868;2023-01-25T04:24:11;10.27;;;7.70;;
63807;SDS011;49961;43.970;22.868;2023-01-25T04:25:12;9.83;;;7.07;;
63807;SDS011;49961;43.970;22.868;2023-01-25T04:26:12;9.33;;;6.97;;
63807;SDS011;49961;43.970;22.868;2023-01-25T04:27:13;13.45;;;7.97;;
63807;SDS011;49961;43.970;22.868;2023-01-25T04:28:13;9.37;;;7.17;;
63807;SDS011;49961;43.970;22.868;2023-01-25T04:29:14;10.13;;;7.50;;
63807;SDS011;49961;43.970;22.868;2023-01-25T04:30:14;10.67;;;7.37;;
63807;SDS011;49961;43.970;22.868;2023-01-25T04:31:15;10.20;;;7.63;;
63807;SDS011;49961;43.970;22.868;2023-01-25T04:32:15;10.17;;;7.37;;
63807;SDS011;49961;43.970;22.868;2023-01-25T04:33:16;9.50;;;7.33;;
63807;SDS011;49961;43.970;22.868;2023-01-25T04:34:16;10.67;;;7.33;;
63807;SDS011;49961;43.970;22.868;2023-01-25T04:35:17;10.10;;;7.50;;
63807;SDS011;49961;43.970;22.868;2023-01-25T04:36:19;11.77;;;7.97;;
63807;SDS011;49961;43.970;22.868;2023-01-25T04:37:19;10.97;;;7.63;;
63807;SDS011;49961;43.970;22.868;2023-01-25T04:38:20;9.83;;;7.70;;
63807;SDS011;49961;43.970;22.868;2023-01-25T04:39:20;9.23;;;7.50;;
63807;SDS011;49961;43.970;22.868;2023-01-25T04:40:21;9.63;;;7.53;;
63807;SDS011;49961;43.970;22.868;2023-01-25T04:41:21;9.70;;;7.53;;
63807;SDS011;49961;43.970;22.868;2023-01-25T04:42:25;10.30;;;7.68;;
63807;SDS011;49961;43.970;22.868;2023-01-25T04:43:26;10.57;;;8.27;;
63807;SDS011;49961;43.970;22.868;2023-01-25T04:44:26;10.47;;;7.70;;
63807;SDS011;49961;43.970;22.868;2023-01-25T04:45:27;10.53;;;8.07;;
63807;SDS011;49961;43.970;22.868;2023-01-25T04:46:27;10.83;;;8.17;;
63807;SDS011;49961;43.970;22.868;2023-01-25T04:47:28;9.93;;;7.97;;
63807;SDS011;49961;43.970;22.868;2023-01-25T04:48:28;10.73;;;8.40;;
63807;SDS011;49961;43.970;22.868;2023-01-25T04:49:29;11.37;;;8.57;;
63807;SDS011;49961;43.970;22.868;2023-01-25T04:50:30;11.80;;;8.57;;
63807;SDS011;49961;43.970;22.868;2023-01-25T04:51:30;12.43;;;8.48;;
63807;SDS011;49961;43.970;22.868;2023-01-25T04:52:31;11.07;;;8.07;;
63807;SDS011;49961;43.970;22.868;2023-01-25T04:53:31;10.70;;;8.43;;
63807;SDS011;49961;43.970;22.868;2023-01-25T04:54:32;10.47;;;8.07;;
63807;SDS011;49961;43.970;22.868;2023-01-25T04:55:32;11.47;;;8.20;;
63807;SDS011;49961;43.970;22.868;2023-01-25T04:56:33;10.43;;;8.20;;
63807;SDS011;49961;43.970;22.868;2023-01-25T04:57:34;11.53;;;8.20;;
63807;SDS011;49961;43.970;22.868;2023-01-25T04:58:34;11.83;;;8.20;;
63807;SDS011;49961;43.970;22.868;2023-01-25T04:59:35;11.97;;;8.83;;
63807;SDS011;49961;43.970;22.868;2023-01-25T05:00:35;11.43;;;8.63;;
63807;SDS011;49961;43.970;22.868;2023-01-25T05:01:36;12.73;;;7.93;;
63807;SDS011;49961;43.970;22.868;2023-01-25T05:02:36;11.10;;;8.00;;
63807;SDS011;49961;43.970;22.868;2023-01-25T05:03:38;12.15;;;7.88;;
63807;SDS011;49961;43.970;22.868;2023-01-25T05:04:38;11.90;;;8.73;;
63807;SDS011;49961;43.970;22.868;2023-01-25T05:05:42;10.90;;;8.00;;
63807;SDS011;49961;43.970;22.868;2023-01-25T05:06:45;12.13;;;8.68;;
63807;SDS011;49961;43.970;22.868;2023-01-25T05:07:45;15.63;;;8.30;;
63807;SDS011;49961;43.970;22.868;2023-01-25T05:08:46;13.40;;;9.03;;
63807;SDS011;49961;43.970;22.868;2023-01-25T05:09:46;14.97;;;8.77;;
63807;SDS011;49961;43.970;22.868;2023-01-25T05:10:47;13.30;;;9.00;;
63807;SDS011;49961;43.970;22.868;2023-01-25T05:11:47;10.57;;;8.17;;
63807;SDS011;49961;43.970;22.868;2023-01-25T05:12:48;11.20;;;8.77;;
63807;SDS011;49961;43.970;22.868;2023-01-25T05:13:48;9.67;;;8.10;;
63807;SDS011;49961;43.970;22.868;2023-01-25T05:14:48;11.27;;;8.90;;
63807;SDS011;49961;43.970;22.868;2023-01-25T05:15:49;13.90;;;9.80;;
63807;SDS011;49961;43.970;22.868;2023-01-25T05:16:49;15.67;;;11.20;;
63807;SDS011;49961;43.970;22.868;2023-01-25T05:17:50;14.70;;;10.57;;
63807;SDS011;49961;43.970;22.868;2023-01-25T05:18:50;12.37;;;9.10;;
63807;SDS011;49961;43.970;22.868;2023-01-25T05:19:51;13.57;;;9.87;;
63807;SDS011;49961;43.970;22.868;2023-01-25T05:20:54;12.07;;;9.43;;
63807;SDS011;49961;43.970;22.868;2023-01-25T05:21:55;12.52;;;9.57;;
63807;SDS011;49961;43.970;22.868;2023-01-25T05:22:58;11.30;;;8.20;;
63807;SDS011;49961;43.970;22.868;2023-01-25T05:23:59;11.07;;;8.53;;
63807;SDS011;49961;43.970;22.868;2023-01-25T05:24:59;13.17;;;9.47;;
63807;SDS011;49961;43.970;22.868;2023-01-25T05:26:01;13.60;;;9.00;;
63807;SDS011;49961;43.970;22.868;2023-01-25T05:27:20;12.90;;;9.05;;
63807;SDS011;49961;43.970;22.868;2023-01-25T05:28:21;10.77;;;8.63;;
63807;SDS011;49961;43.970;22.868;2023-01-25T05:29:22;11.67;;;8.53;;
63807;SDS011;49961;43.970;22.868;2023-01-25T05:30:22;11.40;;;9.43;;
63807;SDS011;49961;43.970;22.868;2023-01-25T05:31:23;12.03;;;9.13;;
63807;SDS011;49961;43.970;22.868;2023-01-25T05:32:23;13.00;;;9.30;;
63807;SDS011;49961;43.970;22.868;2023-01-25T05:33:24;14.20;;;9.73;;
63807;SDS011;49961;43.970;22.868;2023-01-25T05:34:24;13.10;;;9.63;;
63807;SDS011;49961;43.970;22.868;2023-01-25T05:35:25;10.67;;;8.60;;
63807;SDS011;49961;43.970;22.868;2023-01-25T05:36:25;14.00;;;8.70;;
63807;SDS011;49961;43.970;22.868;2023-01-25T05:37:26;11.17;;;8.53;;
63807;SDS011;49961;43.970;22.868;2023-01-25T05:38:27;15.37;;;11.33;;
63807;SDS011;49961;43.970;22.868;2023-01-25T05:39:28;14.93;;;10.95;;
63807;SDS011;49961;43.970;22.868;2023-01-25T05:40:29;14.97;;;10.83;;
63807;SDS011;49961;43.970;22.868;2023-01-25T05:41:29;16.63;;;11.97;;
63807;SDS011;49961;43.970;22.868;2023-01-25T05:42:30;18.90;;;14.20;;
63807;SDS011;49961;43.970;22.868;2023-01-25T05:43:30;16.17;;;11.60;;
63807;SDS011;49961;43.970;22.868;2023-01-25T05:44:31;15.83;;;11.53;;
63807;SDS011;49961;43.970;22.868;2023-01-25T05:45:31;13.97;;;10.40;;
63807;SDS011;49961;43.970;22.868;2023-01-25T05:46:31;13.43;;;10.17;;
63807;SDS011;49961;43.970;22.868;2023-01-25T05:47:32;12.30;;;10.10;;
63807;SDS011;49961;43.970;22.868;2023-01-25T05:48:32;12.90;;;10.40;;
63807;SDS011;49961;43.970;22.868;2023-01-25T05:49:33;15.43;;;11.87;;
63807;SDS011;49961;43.970;22.868;2023-01-25T05:50:33;14.37;;;11.87;;
63807;SDS011;49961;43.970;22.868;2023-01-25T05:51:34;14.83;;;12.50;;
63807;SDS011;49961;43.970;22.868;2023-01-25T05:52:34;13.33;;;10.50;;
63807;SDS011;49961;43.970;22.868;2023-01-25T05:53:35;18.13;;;13.13;;
63807;SDS011;49961;43.970;22.868;2023-01-25T05:54:35;16.03;;;13.00;;
63807;SDS011;49961;43.970;22.868;2023-01-25T05:55:36;14.63;;;12.17;;
63807;SDS011;49961;43.970;22.868;2023-01-25T05:56:36;15.80;;;11.67;;
63807;SDS011;49961;43.970;22.868;2023-01-25T05:57:37;13.70;;;11.47;;
63807;SDS011;49961;43.970;22.868;2023-01-25T05:58:37;15.77;;;11.33;;
63807;SDS011;49961;43.970;22.868;2023-01-25T05:59:38;13.45;;;9.55;;
63807;SDS011;49961;43.970;22.868;2023-01-25T06:00:39;15.30;;;10.43;;
63807;SDS011;49961;43.970;22.868;2023-01-25T06:01:39;12.97;;;8.90;;
63807;SDS011;49961;43.970;22.868;2023-01-25T06:02:40;10.83;;;9.13;;
63807;SDS011;49961;43.970;22.868;2023-01-25T06:03:40;10.10;;;8.10;;
63807;SDS011;49961;43.970;22.868;2023-01-25T06:04:40;10.63;;;8.07;;
63807;SDS011;49961;43.970;22.868;2023-01-25T06:05:41;12.37;;;8.37;;
63807;SDS011;49961;43.970;22.868;2023-01-25T06:06:41;12.70;;;9.23;;
63807;SDS011;49961;43.970;22.868;2023-01-25T06:07:42;13.00;;;10.23;;
63807;SDS011;49961;43.970;22.868;2023-01-25T06:08:42;11.20;;;8.50;;
63807;SDS011;49961;43.970;22.868;2023-01-25T06:09:43;13.27;;;9.27;;
63807;SDS011;49961;43.970;22.868;2023-01-25T06:10:43;16.80;;;9.20;;
63807;SDS011;49961;43.970;22.868;2023-01-25T06:11:44;11.37;;;8.60;;
63807;SDS011;49961;43.970;22.868;2023-01-25T06:12:44;12.53;;;8.03;;
63807;SDS011;49961;43.970;22.868;2023-01-25T06:13:45;12.00;;;8.07;;